Terminal Aerodrome Forecast
Issued by NWS Amarillo, TX

Home | Current Version | Previous Version | Text Only | Print | Product List | Glossary On
Versions: 1 2 3 4 5 6 7 8 9 10 11 12 13
740
FTUS44 KAMA 100520
TAFGUY
TAF
KGUY 100520Z 1006/1106 26008KT P6SM SKC
     FM101700 26015G22KT P6SM SKC
     FM110000 33007KT P6SM SKC=

USA.gov is the U.S. government's official web portal to all federal, state and local government web resources and services.